Time;durP1;ratioP1;P1;durP2;ratioP2;P2;SDS_P1;SDS_P2;PMS_P1;PMS_P2;Temp;Humidity;BMP_temperature;BMP_pressure;BME280_temperature;BME280_humidity;BME280_pressure;Samples;Min_cycle;Max_cycle;Signal;HPM_P1;HPM_P2
2023/07/21 00:00:15;;;;;;;;;;;;;;;12.87;100.00;101430.19;5033365;28;19913;-80
2023/07/21 00:02:41;;;;;;;;;;;;;;;12.85;100.00;101421.47;5032404;28;20388;-79
2023/07/21 00:05:06;;;;;;;;;;;;;;;12.84;100.00;101425.13;5033318;28;19953;-79
2023/07/21 00:07:32;;;;;;;;;;;;;;;12.82;100.00;101420.88;5016205;28;19920;-80
2023/07/21 00:09:59;;;;;;;;;;;;;;;12.79;100.00;101422.00;5034498;28;19917;-79
2023/07/21 00:12:24;;;;;;;;;;;;;;;12.78;100.00;101423.00;5037233;28;19960;-80
2023/07/21 00:14:49;;;;;;;;;;;;;;;12.78;100.00;101424.81;5036843;28;20333;-78
2023/07/21 00:17:15;;;;;;;;;;;;;;;12.77;100.00;101425.81;5037293;28;20277;-79
2023/07/21 00:19:41;;;;;;;;;;;;;;;12.77;100.00;101423.16;5036946;28;20281;-78
2023/07/21 00:22:07;;;;;;;;;;;;;;;12.78;100.00;101422.16;5036791;28;20008;-78
2023/07/21 00:24:32;;;;;;;;;;;;;;;12.79;100.00;101422.00;5019352;28;19921;-78
2023/07/21 00:27:01;;;;;;;;;;;;;;;12.81;100.00;101424.56;5036873;28;19936;-78
2023/07/21 00:29:26;;;;;;;;;;;;;;;12.83;100.00;101417.25;5037032;28;20330;-78
2023/07/21 00:31:51;;;;;;;;;;;;;;;12.85;100.00;101410.78;5036744;28;20015;-79
2023/07/21 00:34:16;;;;;;;;;;;;;;;12.92;100.00;101418.25;5036980;28;20059;-79
2023/07/21 00:36:45;;;;;;;;;;;;;;;12.95;100.00;101409.94;5018961;28;19921;-78
2023/07/21 00:39:10;;;;;;;;;;;;;;;12.98;100.00;101410.50;5036647;28;19917;-78
2023/07/21 00:41:36;;;;;;;;;;;;;;;13.01;100.00;101404.03;5036154;28;19917;-78
2023/07/21 00:44:02;;;;;;;;;;;;;;;13.02;100.00;101403.88;5036439;28;19925;-78
2023/07/21 00:46:27;;;;;;;;;;;;;;;13.05;100.00;101400.09;5036104;28;19924;-78
2023/07/21 00:48:52;;;;;;;;;;;;;;;13.06;100.00;101396.44;5036346;28;19917;-79
2023/07/21 00:51:19;;;;;;;;;;;;;;;13.08;100.00;101390.94;5036603;28;19921;-79
2023/07/21 00:53:45;;;;;;;;;;;;;;;13.09;100.00;101381.94;5036169;28;19919;-79
2023/07/21 00:56:10;;;;;;;;;;;;;;;13.10;100.00;101378.31;5036128;28;20015;-79
2023/07/21 00:58:37;;;;;;;;;;;;;;;13.11;100.00;101378.16;5035794;28;19923;-78
2023/07/21 01:01:02;;;;;;;;;;;;;;;13.13;100.00;101381.53;5036049;28;19921;-78
2023/07/21 01:03:29;;;;;;;;;;;;;;;13.13;100.00;101378.00;5035544;28;19974;-78
2023/07/21 01:05:54;;;;;;;;;;;;;;;13.14;100.00;101375.19;5035892;28;19924;-78
2023/07/21 01:08:20;;;;;;;;;;;;;;;13.14;100.00;101377.88;5035603;28;19917;-80
2023/07/21 01:10:46;;;;;;;;;;;;;;;13.13;100.00;101372.66;5035969;28;19913;-80
2023/07/21 01:13:12;;;;;;;;;;;;;;;13.13;100.00;101373.50;5035812;28;20385;-78
2023/07/21 01:15:43;;;;;;;;;;;;;;;13.14;100.00;101377.03;5018215;28;19917;-80
2023/07/21 01:18:09;;;;;;;;;;;;;;;13.14;100.00;101377.03;5035873;28;19919;-77
2023/07/21 01:20:34;;;;;;;;;;;;;;;13.13;100.00;101367.31;5035583;28;19917;-77
2023/07/21 01:23:20;;;;;;;;;;;;;;;13.09;100.00;101369.44;5033818;28;20004;-78
2023/07/21 01:25:46;;;;;;;;;;;;;;;13.06;100.00;101364.38;5035604;28;20413;-77
2023/07/21 01:28:12;;;;;;;;;;;;;;;13.07;100.00;101362.56;5035387;28;19917;-78
2023/07/21 01:30:38;;;;;;;;;;;;;;;13.05;100.00;101358.19;5035767;28;19921;-77
2023/07/21 01:33:05;;;;;;;;;;;;;;;13.05;100.00;101355.53;5035229;28;20015;-78
2023/07/21 01:35:32;;;;;;;;;;;;;;;13.07;100.00;101363.41;5035698;28;20017;-78
2023/07/21 01:37:59;;;;;;;;;;;;;;;13.08;100.00;101366.91;5035095;28;19916;-78
2023/07/21 01:40:25;;;;;;;;;;;;;;;13.06;100.00;101361.69;5018074;28;19913;-78
2023/07/21 01:42:51;;;;;;;;;;;;;;;13.04;100.00;101363.69;5033878;28;19924;-78
2023/07/21 01:45:16;;;;;;;;;;;;;;;13.01;100.00;101359.47;5035266;28;19916;-78
2023/07/21 01:47:43;;;;;;;;;;;;;;;12.99;100.00;101357.94;5035812;28;19954;-78
2023/07/21 01:50:09;;;;;;;;;;;;;;;12.96;100.00;101360.91;5035101;28;19913;-78
2023/07/21 01:52:36;;;;;;;;;;;;;;;12.94;100.00;101360.16;5034927;28;19917;-79
2023/07/21 01:55:10;;;;;;;;;;;;;;;12.94;100.00;101371.69;5034841;28;19919;-80
2023/07/21 01:57:40;;;;;;;;;;;;;;;12.96;100.00;101363.56;5034690;28;19913;-79
2023/07/21 02:00:13;;;;;;;;;;;;;;;12.95;100.00;101361.88;5035481;28;20398;-78
2023/07/21 02:02:40;;;;;;;;;;;;;;;12.95;100.00;101369.88;5035279;28;19917;-79
2023/07/21 02:05:05;;;;;;;;;;;;;;;12.95;100.00;101357.34;5034722;28;19917;-80
2023/07/21 02:07:31;;;;;;;;;;;;;;;12.96;100.00;101345.69;5034928;28;20380;-80
2023/07/21 02:09:57;;;;;;;;;;;;;;;12.96;100.00;101348.38;5034917;28;19921;-80
2023/07/21 02:12:22;;;;;;;;;;;;;;;12.94;100.00;101341.47;5035117;28;19956;-80
2023/07/21 02:14:47;;;;;;;;;;;;;;;12.91;100.00;101352.44;5034515;28;19916;-80
2023/07/21 02:17:12;;;;;;;;;;;;;;;12.87;100.00;101343.88;5034512;28;19917;-80
2023/07/21 02:19:38;;;;;;;;;;;;;;;12.82;100.00;101338.97;5016538;28;19917;-77
2023/07/21 02:22:03;;;;;;;;;;;;;;;12.80;100.00;101337.41;5031429;28;19917;-77
2023/07/21 02:24:28;;;;;;;;;;;;;;;12.76;100.00;101344.03;5031457;28;19968;-77
2023/07/21 02:26:54;;;;;;;;;;;;;;;12.74;100.00;101340.66;5031101;28;19913;-77
2023/07/21 02:29:20;;;;;;;;;;;;;;;12.68;100.00;101340.22;5031093;28;20387;-76
2023/07/21 02:31:45;;;;;;;;;;;;;;;12.62;100.00;101339.97;5031320;28;20024;-77
2023/07/21 02:34:11;;;;;;;;;;;;;;;12.54;100.00;101340.66;5030320;28;19969;-77
2023/07/21 02:36:36;;;;;;;;;;;;;;;12.46;100.00;101340.50;5031358;28;20075;-77
2023/07/21 02:39:02;;;;;;;;;;;;;;;12.37;100.00;101344.00;5031115;28;19932;-77
2023/07/21 02:41:27;;;;;;;;;;;;;;;12.30;100.00;101344.56;5013064;28;20105;-77
2023/07/21 02:43:52;;;;;;;;;;;;;;;12.23;100.00;101346.09;5031513;28;20037;-77
2023/07/21 02:46:17;;;;;;;;;;;;;;;12.15;100.00;101343.25;5031366;28;19971;-77
2023/07/21 02:48:43;;;;;;;;;;;;;;;12.09;100.00;101341.13;5030930;28;19923;-77
2023/07/21 02:51:08;;;;;;;;;;;;;;;12.04;100.00;101344.22;5030693;28;19913;-77
2023/07/21 02:53:34;;;;;;;;;;;;;;;11.99;100.00;101333.97;5030743;28;20288;-78
2023/07/21 02:56:03;;;;;;;;;;;;;;;11.94;100.00;101332.66;5030382;28;19923;-77
2023/07/21 02:58:29;;;;;;;;;;;;;;;11.89;100.00;101333.06;5030799;28;19936;-77
2023/07/21 03:00:54;;;;;;;;;;;;;;;11.83;100.00;101330.94;5030558;28;20008;-77
2023/07/21 03:03:19;;;;;;;;;;;;;;;11.80;100.00;101336.53;5030598;28;19995;-78
2023/07/21 03:05:45;;;;;;;;;;;;;;;11.76;100.00;101332.44;5012404;28;19974;-77
2023/07/21 03:08:11;;;;;;;;;;;;;;;11.72;100.00;101328.34;5012704;28;20353;-78
2023/07/21 03:10:36;;;;;;;;;;;;;;;11.69;100.00;101325.97;5030752;28;19917;-78
2023/07/21 03:13:01;;;;;;;;;;;;;;;11.67;100.00;101333.25;5030468;28;20310;-78
2023/07/21 03:15:26;;;;;;;;;;;;;;;11.62;100.00;101329.16;5030440;28;19977;-77
2023/07/21 03:17:52;;;;;;;;;;;;;;;11.60;100.00;101325.81;5012470;28;19921;-78
2023/07/21 03:20:18;;;;;;;;;;;;;;;11.58;100.00;101314.41;5030011;28;19924;-78
2023/07/21 03:22:47;;;;;;;;;;;;;;;11.55;100.00;101317.34;5030229;28;19924;-78
2023/07/21 03:25:13;;;;;;;;;;;;;;;11.54;100.00;101314.81;5030321;28;20321;-78
2023/07/21 03:27:39;;;;;;;;;;;;;;;11.52;100.00;101316.78;5030487;28;19913;-78
2023/07/21 03:30:05;;;;;;;;;;;;;;;11.50;100.00;101310.75;5030108;28;20011;-77
2023/07/21 03:32:30;;;;;;;;;;;;;;;11.47;100.00;101310.03;5029636;28;20313;-78
2023/07/21 03:34:56;;;;;;;;;;;;;;;11.46;100.00;101305.69;5012351;28;19968;-78
2023/07/21 03:37:25;;;;;;;;;;;;;;;11.47;100.00;101311.84;5030344;28;20072;-77
2023/07/21 03:39:50;;;;;;;;;;;;;;;11.47;100.00;101310.03;5030538;28;20016;-77
2023/07/21 03:42:15;;;;;;;;;;;;;;;11.51;100.00;101307.09;5030232;28;19952;-77
2023/07/21 03:44:41;;;;;;;;;;;;;;;11.55;100.00;101301.34;5031370;28;19956;-77
2023/07/21 03:47:06;;;;;;;;;;;;;;;11.61;100.00;101302.66;5034172;28;19928;-77
2023/07/21 03:49:32;;;;;;;;;;;;;;;11.66;100.00;101292.44;5034013;28;19940;-76
2023/07/21 03:51:57;;;;;;;;;;;;;;;11.74;100.00;101294.44;5033767;28;19917;-77
2023/07/21 03:54:22;;;;;;;;;;;;;;;11.77;100.00;101294.97;5033674;28;19917;-77
2023/07/21 03:56:47;;;;;;;;;;;;;;;11.78;100.00;101291.34;5033584;28;20004;-77
2023/07/21 03:59:13;;;;;;;;;;;;;;;11.83;100.00;101293.59;5033999;28;20352;-77
2023/07/21 04:01:38;;;;;;;;;;;;;;;11.86;100.00;101288.00;5033883;28;19913;-76
2023/07/21 04:04:03;;;;;;;;;;;;;;;11.91;100.00;101291.13;5033357;28;19925;-77
2023/07/21 04:06:28;;;;;;;;;;;;;;;11.95;100.00;101295.19;5032586;28;19921;-77
2023/07/21 04:08:54;;;;;;;;;;;;;;;12.01;100.00;101290.31;5033592;28;20333;-77
2023/07/21 04:11:19;;;;;;;;;;;;;;;12.06;100.00;101288.94;5033491;28;19968;-77
2023/07/21 04:13:44;;;;;;;;;;;;;;;12.10;100.00;101300.16;5015688;28;19928;-77
2023/07/21 04:16:11;;;;;;;;;;;;;;;12.15;100.00;101297.91;5033651;28;20000;-77
2023/07/21 04:18:37;;;;;;;;;;;;;;;12.20;100.00;101301.00;5033995;28;19940;-76
2023/07/21 04:21:02;;;;;;;;;;;;;;;12.25;100.00;101296.09;5033718;28;19940;-77
2023/07/21 04:23:28;;;;;;;;;;;;;;;12.30;100.00;101301.00;5033485;28;19997;-77
2023/07/21 04:25:53;;;;;;;;;;;;;;;12.34;100.00;101295.25;5033507;28;20352;-77
2023/07/21 04:28:18;;;;;;;;;;;;;;;12.40;100.00;101296.53;5033366;28;19917;-77
2023/07/21 04:30:43;;;;;;;;;;;;;;;12.44;100.00;101278.44;5033288;28;20310;-77
2023/07/21 04:33:09;;;;;;;;;;;;;;;12.50;100.00;101284.03;5015350;28;20269;-77
2023/07/21 04:35:34;;;;;;;;;;;;;;;12.56;100.00;101282.63;5014660;28;19917;-77
2023/07/21 04:38:00;;;;;;;;;;;;;;;12.62;100.00;101282.06;5032540;28;19985;-77
2023/07/21 04:40:25;;;;;;;;;;;;;;;12.67;100.00;101278.97;5032460;28;20008;-77
2023/07/21 04:42:50;;;;;;;;;;;;;;;12.74;100.00;101271.25;5032349;28;20318;-77
2023/07/21 04:45:16;;;;;;;;;;;;;;;12.80;100.00;101274.16;5032771;28;20385;-77
2023/07/21 04:47:41;;;;;;;;;;;;;;;12.86;100.00;101278.09;5032644;28;19917;-77
2023/07/21 04:50:07;;;;;;;;;;;;;;;12.94;100.00;101277.38;5032935;28;19913;-77
2023/07/21 04:52:32;;;;;;;;;;;;;;;12.99;100.00;101278.63;5032556;28;19917;-77
2023/07/21 04:54:58;;;;;;;;;;;;;;;13.03;100.00;101269.34;5032393;28;20031;-78
2023/07/21 04:57:23;;;;;;;;;;;;;;;13.10;100.00;101271.44;5013336;28;20067;-78
2023/07/21 04:59:48;;;;;;;;;;;;;;;13.15;100.00;101272.69;5031950;28;19963;-77
2023/07/21 05:02:13;;;;;;;;;;;;;;;13.21;100.00;101274.78;5014334;28;19917;-77
2023/07/21 05:04:39;;;;;;;;;;;;;;;13.27;100.00;101275.16;5032705;28;19917;-78
2023/07/21 05:07:05;;;;;;;;;;;;;;;13.33;100.00;101274.59;5032721;28;19932;-77
2023/07/21 05:09:30;;;;;;;;;;;;;;;13.36;100.00;101277.00;5032986;28;19913;-77
2023/07/21 05:11:55;;;;;;;;;;;;;;;13.39;100.00;101268.69;5032923;28;19928;-77
2023/07/21 05:14:22;;;;;;;;;;;;;;;13.43;100.00;101277.25;5033017;28;20003;-78
2023/07/21 05:16:47;;;;;;;;;;;;;;;13.47;100.00;101270.66;5032740;28;19917;-78
2023/07/21 05:19:12;;;;;;;;;;;;;;;13.51;100.00;101277.34;5032594;28;19967;-78
2023/07/21 05:21:37;;;;;;;;;;;;;;;13.55;100.00;101276.94;5033234;28;20008;-77
2023/07/21 05:24:03;;;;;;;;;;;;;;;13.60;100.00;101273.81;5032704;28;19945;-78
2023/07/21 05:26:29;;;;;;;;;;;;;;;13.64;100.00;101275.19;5032568;28;19917;-77
2023/07/21 05:28:55;;;;;;;;;;;;;;;13.70;100.00;101271.94;5032491;28;20015;-77
2023/07/21 05:31:23;;;;;;;;;;;;;;;13.74;100.00;101275.97;5032369;28;20016;-77
2023/07/21 05:33:49;;;;;;;;;;;;;;;13.78;100.00;101273.00;5032248;28;19913;-77
2023/07/21 05:36:15;;;;;;;;;;;;;;;13.79;100.00;101269.34;5032391;28;19913;-77
2023/07/21 05:38:40;;;;;;;;;;;;;;;13.83;100.00;101268.06;5032314;28;19913;-78
2023/07/21 05:41:05;;;;;;;;;;;;;;;13.86;100.00;101273.09;5031785;28;20329;-78
2023/07/21 05:43:31;;;;;;;;;;;;;;;13.90;100.00;101275.34;5031709;28;19921;-77
2023/07/21 05:45:56;;;;;;;;;;;;;;;13.96;100.00;101273.91;5032098;28;20325;-77
2023/07/21 05:48:24;;;;;;;;;;;;;;;14.01;100.00;101268.09;5031921;28;20317;-77
2023/07/21 05:50:49;;;;;;;;;;;;;;;14.06;100.00;101269.31;5014727;28;19975;-76
2023/07/21 05:53:14;;;;;;;;;;;;;;;14.11;100.00;101269.69;5032088;28;20269;-77
2023/07/21 05:55:43;;;;;;;;;;;;;;;14.18;100.00;101267.28;5013232;28;20304;-77
2023/07/21 05:58:11;;;;;;;;;;;;;;;14.26;100.00;101271.84;5031392;28;20333;-77
2023/07/21 06:00:36;;;;;;;;;;;;;;;14.33;100.00;101272.94;5031773;28;20225;-76
2023/07/21 06:03:02;;;;;;;;;;;;;;;14.40;100.00;101273.97;5032031;28;20027;-76
2023/07/21 06:05:27;;;;;;;;;;;;;;;14.45;100.00;101270.84;5031385;28;19913;-76
2023/07/21 06:07:53;;;;;;;;;;;;;;;14.50;100.00;101267.72;5032058;28;19921;-76
2023/07/21 06:10:19;;;;;;;;;;;;;;;14.55;100.00;101265.41;5031564;28;19921;-76
2023/07/21 06:12:44;;;;;;;;;;;;;;;14.61;100.00;101268.34;5031523;28;20377;-76
2023/07/21 06:15:09;;;;;;;;;;;;;;;14.70;100.00;101266.56;5031661;28;19940;-77
2023/07/21 06:17:35;;;;;;;;;;;;;;;14.76;100.00;101265.97;5013936;28;19917;-77
2023/07/21 06:20:00;;;;;;;;;;;;;;;14.84;100.00;101265.16;5031555;28;19931;-77
2023/07/21 06:22:26;;;;;;;;;;;;;;;14.96;100.00;101271.13;5031311;28;19975;-77
2023/07/21 06:24:51;;;;;;;;;;;;;;;15.07;100.00;101275.38;5031134;28;19956;-77
2023/07/21 06:27:17;;;;;;;;;;;;;;;15.23;100.00;101269.25;5030922;28;19913;-76
2023/07/21 06:29:42;;;;;;;;;;;;;;;15.37;100.00;101268.66;5031595;28;20284;-77
2023/07/21 06:32:08;;;;;;;;;;;;;;;15.48;100.00;101265.69;5031574;28;20004;-79
2023/07/21 06:34:33;;;;;;;;;;;;;;;15.61;100.00;101267.91;5032027;28;19917;-77
2023/07/21 06:36:58;;;;;;;;;;;;;;;15.74;100.00;101278.19;5013738;28;20016;-73
2023/07/21 06:39:24;;;;;;;;;;;;;;;15.84;100.00;101270.88;5031210;28;19924;-76
2023/07/21 06:41:51;;;;;;;;;;;;;;;16.00;100.00;101267.41;5031028;28;19948;-74
2023/07/21 06:44:20;;;;;;;;;;;;;;;16.12;100.00;101269.78;5030946;28;20357;-75
2023/07/21 06:46:47;;;;;;;;;;;;;;;16.21;100.00;101272.31;5031236;28;19921;-78
2023/07/21 06:49:14;;;;;;;;;;;;;;;16.35;100.00;101261.94;5031104;28;19924;-77
2023/07/21 06:51:39;;;;;;;;;;;;;;;16.51;100.00;101267.31;5030746;28;19917;-76
2023/07/21 06:54:07;;;;;;;;;;;;;;;16.64;100.00;101263.25;5030966;28;19971;-76
2023/07/21 06:56:32;;;;;;;;;;;;;;;16.70;100.00;101262.59;5030972;28;19986;-76
2023/07/21 06:58:57;;;;;;;;;;;;;;;16.78;100.00;101265.28;5012876;28;20412;-76
2023/07/21 07:01:22;;;;;;;;;;;;;;;16.84;100.00;101256.53;5030505;28;19946;-76
2023/07/21 07:03:48;;;;;;;;;;;;;;;16.87;100.00;101261.59;5012563;28;20087;-76
2023/07/21 07:06:13;;;;;;;;;;;;;;;16.92;100.00;101261.91;5031145;28;19921;-76
2023/07/21 07:08:38;;;;;;;;;;;;;;;16.94;100.00;101259.06;5013014;28;20020;-76
2023/07/21 07:11:03;;;;;;;;;;;;;;;17.00;100.00;101257.53;5012807;28;20015;-76
2023/07/21 07:13:29;;;;;;;;;;;;;;;17.08;100.00;101257.53;5031288;28;19917;-76
2023/07/21 07:15:54;;;;;;;;;;;;;;;17.13;100.00;101247.09;5013001;28;20322;-77
2023/07/21 07:18:19;;;;;;;;;;;;;;;17.23;100.00;101254.97;5030755;28;19971;-76
2023/07/21 07:20:52;;;;;;;;;;;;;;;17.35;100.00;101252.75;5036139;28;20021;-76
2023/07/21 07:23:18;;;;;;;;;;;;;;;17.50;100.00;101251.00;5036927;28;19913;-74
2023/07/21 07:25:50;;;;;;;;;;;;;;;17.62;100.00;101249.59;5037425;28;19979;-78
2023/07/21 07:28:16;;;;;;;;;;;;;;;17.75;100.00;101251.72;5036641;28;20352;-75
2023/07/21 07:30:42;;;;;;;;;;;;;;;17.89;100.00;101255.53;5036853;28;19917;-74
2023/07/21 07:33:07;;;;;;;;;;;;;;;18.08;100.00;101256.94;5037370;28;19917;-74
2023/07/21 07:35:32;;;;;;;;;;;;;;;18.11;100.00;101255.75;5037168;28;20202;-76
2023/07/21 07:37:58;;;;;;;;;;;;;;;18.13;100.00;101257.22;5036657;28;20012;-75
2023/07/21 07:40:23;;;;;;;;;;;;;;;18.22;100.00;101254.50;5037129;28;19943;-74
2023/07/21 07:42:49;;;;;;;;;;;;;;;18.27;100.00;101254.78;5036934;28;19921;-75
2023/07/21 07:45:14;;;;;;;;;;;;;;;18.46;100.00;101253.47;5036631;28;19996;-74
2023/07/21 07:47:39;;;;;;;;;;;;;;;18.59;100.00;101259.06;5018638;28;20349;-75
2023/07/21 07:50:06;;;;;;;;;;;;;;;18.50;100.00;101252.09;5036751;28;20371;-75
2023/07/21 07:52:31;;;;;;;;;;;;;;;18.52;100.00;101249.22;5036299;28;20023;-75
2023/07/21 07:54:56;;;;;;;;;;;;;;;18.66;100.00;101251.94;5036314;28;19952;-75
2023/07/21 07:57:24;;;;;;;;;;;;;;;18.68;100.00;101246.38;5002566;28;19927;-74
2023/07/21 07:59:50;;;;;;;;;;;;;;;18.76;100.00;101256.22;5036624;28;19920;-75
2023/07/21 08:02:15;;;;;;;;;;;;;;;18.75;100.00;101251.84;5036521;28;20027;-75
2023/07/21 08:04:41;;;;;;;;;;;;;;;18.81;100.00;101251.97;5036882;28;20024;-75
2023/07/21 08:07:06;;;;;;;;;;;;;;;18.84;100.00;101253.47;5036549;28;19928;-74
2023/07/21 08:09:32;;;;;;;;;;;;;;;18.81;100.00;101251.97;5036436;28;19917;-75
2023/07/21 08:11:57;;;;;;;;;;;;;;;18.84;100.00;101250.78;5036138;28;19913;-76
2023/07/21 08:14:22;;;;;;;;;;;;;;;18.87;100.00;101252.28;5036243;28;20014;-76
2023/07/21 08:16:47;;;;;;;;;;;;;;;19.02;100.00;101251.28;5018474;28;19917;-75
2023/07/21 08:19:13;;;;;;;;;;;;;;;19.24;100.00;101251.38;5036717;28;19966;-77
2023/07/21 08:21:38;;;;;;;;;;;;;;;19.49;100.00;101237.59;5002736;28;20298;-77
2023/07/21 08:24:03;;;;;;;;;;;;;;;19.68;100.00;101255.06;5034838;28;19917;-75
2023/07/21 08:26:29;;;;;;;;;;;;;;;19.66;100.00;101251.69;5036295;28;19920;-77
2023/07/21 08:28:55;;;;;;;;;;;;;;;19.76;100.00;101256.81;5001842;28;20007;-75
2023/07/21 08:31:20;;;;;;;;;;;;;;;19.91;100.00;101257.63;5016489;28;19924;-76
2023/07/21 08:33:46;;;;;;;;;;;;;;;20.13;100.00;101255.78;5033528;28;19913;-76
2023/07/21 08:36:11;;;;;;;;;;;;;;;20.38;100.00;101255.41;5033126;28;19971;-77
2023/07/21 08:38:36;;;;;;;;;;;;;;;20.76;100.00;101247.84;5015889;28;19917;-78
2023/07/21 08:41:03;;;;;;;;;;;;;;;21.06;98.80;101244.91;5033015;28;19940;-75
2023/07/21 08:43:28;;;;;;;;;;;;;;;21.13;99.51;101258.50;5032723;28;19921;-75
2023/07/21 08:45:54;;;;;;;;;;;;;;;21.26;100.00;101247.75;5032915;28;19974;-76
2023/07/21 08:48:20;;;;;;;;;;;;;;;21.44;100.00;101240.97;5033174;28;19912;-71
2023/07/21 08:50:47;;;;;;;;;;;;;;;21.55;100.00;101247.72;5032914;28;20411;-70
2023/07/21 08:53:13;;;;;;;;;;;;;;;21.37;98.67;101240.09;5032595;28;19924;-71
2023/07/21 08:55:38;;;;;;;;;;;;;;;21.33;90.72;101238.84;5032946;28;19917;-72
2023/07/21 08:58:04;;;;;;;;;;;;;;;21.27;85.69;101233.19;4999196;28;19913;-72
2023/07/21 09:00:31;;;;;;;;;;;;;;;20.95;93.65;101240.09;5032569;28;19959;-71
2023/07/21 09:02:59;;;;;;;;;;;;;;;20.47;100.00;101237.19;5032642;28;20017;-71
2023/07/21 09:05:25;;;;;;;;;;;;;;;20.19;100.00;101243.38;5032480;28;19920;-72
2023/07/21 09:07:51;;;;;;;;;;;;;;;19.95;100.00;101245.44;5032804;28;19993;-70
2023/07/21 09:10:36;;;;;;;;;;;;;;;19.69;100.00;101243.22;5032727;28;19913;-70
2023/07/21 09:13:02;;;;;;;;;;;;;;;19.38;100.00;101245.13;5031985;28;20352;-70
2023/07/21 09:15:27;;;;;;;;;;;;;;;19.23;100.00;101243.47;5032302;28;19989;-73
2023/07/21 09:17:52;;;;;;;;;;;;;;;19.14;100.00;101240.03;5032497;28;19929;-73
2023/07/21 09:20:18;;;;;;;;;;;;;;;19.16;100.00;101246.91;5032243;28;20368;-73
2023/07/21 09:22:46;;;;;;;;;;;;;;;19.10;100.00;101246.81;5032231;28;19935;-73
2023/07/21 09:25:18;;;;;;;;;;;;;;;19.19;100.00;101246.53;5032411;28;20381;-73
2023/07/21 09:27:51;;;;;;;;;;;;;;;19.31;100.00;101243.38;5032365;28;19913;-72
2023/07/21 09:30:16;;;;;;;;;;;;;;;19.61;100.00;101244.16;5032363;28;20001;-72
2023/07/21 09:32:41;;;;;;;;;;;;;;;20.61;100.00;101256.00;5032329;28;20349;-73
2023/07/21 09:35:08;;;;;;;;;;;;;;;21.47;95.71;101238.69;5032506;28;19917;-73
2023/07/21 09:37:34;;;;;;;;;;;;;;;21.62;97.54;101246.69;5032048;28;19936;-72
2023/07/21 09:40:00;;;;;;;;;;;;;;;21.92;82.70;101246.38;5032782;28;20015;-73
2023/07/21 09:42:26;;;;;;;;;;;;;;;21.70;78.46;101247.56;5031355;28;20353;-70
2023/07/21 09:44:52;;;;;;;;;;;;;;;21.31;86.51;101245.28;5031574;28;19921;-72
2023/07/21 09:47:18;;;;;;;;;;;;;;;20.66;82.28;101251.94;5031830;28;20365;-71
2023/07/21 09:49:43;;;;;;;;;;;;;;;20.22;93.39;101254.63;5031655;28;19925;-71
2023/07/21 09:52:11;;;;;;;;;;;;;;;19.79;95.30;101251.06;5032163;28;19920;-72
2023/07/21 09:54:39;;;;;;;;;;;;;;;19.56;97.77;101244.75;5031806;28;19936;-73
2023/07/21 09:57:05;;;;;;;;;;;;;;;19.49;100.00;101245.69;5032216;28;19913;-71
2023/07/21 09:59:34;;;;;;;;;;;;;;;19.80;100.00;101244.66;5032433;28;19935;-72
2023/07/21 10:01:59;;;;;;;;;;;;;;;20.66;100.00;101231.16;5032020;28;20003;-72
2023/07/21 10:04:25;;;;;;;;;;;;;;;20.90;100.00;101239.81;5031899;28;19940;-72
2023/07/21 10:06:53;;;;;;;;;;;;;;;21.02;100.00;101240.09;5014263;28;19967;-72
2023/07/21 10:09:18;;;;;;;;;;;;;;;21.50;100.00;101245.63;5031789;28;19960;-72
2023/07/21 10:11:44;;;;;;;;;;;;;;;22.20;100.00;101248.09;5031736;28;19956;-76
2023/07/21 10:14:29;;;;;;;;;;;;;;;22.39;92.77;101245.66;5013679;28;19917;-72
2023/07/21 10:16:54;;;;;;;;;;;;;;;21.87;93.65;101243.47;5013906;28;19920;-78
2023/07/21 10:19:20;;;;;;;;;;;;;;;21.26;95.31;101252.34;5031484;28;20365;-79
2023/07/21 10:21:51;;;;;;;;;;;;;;;20.59;100.00;101249.16;5031375;28;20372;-76
2023/07/21 10:24:32;;;;;;;;;;;;;;;20.11;100.00;101262.41;4998004;28;20011;-71
2023/07/21 10:27:01;;;;;;;;;;;;;;;19.68;100.00;101258.59;5031690;28;19920;-72
2023/07/21 10:29:26;;;;;;;;;;;;;;;19.11;100.00;101259.28;5031920;28;20279;-72
2023/07/21 10:31:55;;;;;;;;;;;;;;;19.02;100.00;101261.25;5031214;28;20531;-72
2023/07/21 10:34:31;;;;;;;;;;;;;;;18.88;100.00;101264.75;5031198;28;19932;-75
2023/07/21 10:37:02;;;;;;;;;;;;;;;18.75;100.00;101260.78;5031075;28;19921;-72
2023/07/21 10:39:29;;;;;;;;;;;;;;;18.90;100.00;101262.69;5031040;28;20079;-72
2023/07/21 10:41:58;;;;;;;;;;;;;;;18.95;100.00;101265.69;5030610;28;19916;-71
2023/07/21 10:44:30;;;;;;;;;;;;;;;19.10;100.00;101263.84;5012693;28;20001;-72
2023/07/21 10:46:56;;;;;;;;;;;;;;;19.22;100.00;101263.38;5030770;28;19952;-72
2023/07/21 10:49:21;;;;;;;;;;;;;;;19.95;100.00;101271.59;5031195;28;20375;-72
2023/07/21 10:51:47;;;;;;;;;;;;;;;20.50;100.00;101275.47;5030782;28;20325;-71
2023/07/21 10:54:14;;;;;;;;;;;;;;;20.74;100.00;101276.97;5029716;28;19975;-78
2023/07/21 10:56:40;;;;;;;;;;;;;;;20.43;100.00;101275.41;5030587;28;19913;-73
2023/07/21 10:59:06;;;;;;;;;;;;;;;20.32;100.00;101275.94;5013425;28;19952;-73
2023/07/21 11:01:31;;;;;;;;;;;;;;;19.83;100.00;101279.34;5032389;28;19912;-72
2023/07/21 11:03:57;;;;;;;;;;;;;;;19.42;100.00;101277.97;5030502;28;19917;-70
2023/07/21 11:06:23;;;;;;;;;;;;;;;19.02;100.00;101280.94;5030552;28;19917;-73
2023/07/21 11:08:49;;;;;;;;;;;;;;;18.80;100.00;101281.81;5012508;28;20003;-72
2023/07/21 11:11:14;;;;;;;;;;;;;;;18.62;100.00;101291.06;5030412;28;20325;-72
2023/07/21 11:13:40;;;;;;;;;;;;;;;18.66;100.00;101288.81;5030151;28;19917;-73
2023/07/21 11:16:05;;;;;;;;;;;;;;;18.68;100.00;101287.63;5030378;28;19943;-72
2023/07/21 11:18:30;;;;;;;;;;;;;;;18.75;100.00;101292.28;5030496;28;20007;-71
2023/07/21 11:20:55;;;;;;;;;;;;;;;18.87;100.00;101290.88;5030038;28;19928;-72
2023/07/21 11:23:22;;;;;;;;;;;;;;;19.40;100.00;101284.59;5030448;28;19919;-71
2023/07/21 11:26:00;;;;;;;;;;;;;;;20.82;100.00;101284.09;5030438;28;19917;-71
2023/07/21 11:28:27;;;;;;;;;;;;;;;22.02;100.00;101281.22;5030729;28;19917;-71
2023/07/21 11:30:52;;;;;;;;;;;;;;;22.12;89.22;101286.22;5030428;28;20009;-71
2023/07/21 11:33:17;;;;;;;;;;;;;;;22.96;85.14;101278.56;5030298;28;20007;-70
2023/07/21 11:35:48;;;;;;;;;;;;;;;23.63;80.63;101275.72;5030261;28;19967;-72
2023/07/21 11:38:14;;;;;;;;;;;;;;;23.41;74.70;101271.41;5012497;28;20322;-69
2023/07/21 11:40:39;;;;;;;;;;;;;;;24.01;75.74;101267.63;5030402;28;19983;-75
2023/07/21 11:43:07;;;;;;;;;;;;;;;24.81;65.76;101272.50;5030073;28;20032;-74
2023/07/21 11:45:33;;;;;;;;;;;;;;;25.34;63.93;101279.28;5013035;28;20337;-73
2023/07/21 11:47:59;;;;;;;;;;;;;;;25.28;56.80;101273.91;5030702;28;19917;-74
2023/07/21 11:50:24;;;;;;;;;;;;;;;24.67;57.39;101273.66;5030030;28;19917;-74
2023/07/21 11:52:49;;;;;;;;;;;;;;;23.96;60.11;101272.88;5030535;28;19917;-74
2023/07/21 11:55:15;;;;;;;;;;;;;;;23.34;62.25;101270.59;5030646;28;20305;-74
2023/07/21 11:57:40;;;;;;;;;;;;;;;22.80;74.49;101274.44;5030240;28;19928;-74
2023/07/21 12:00:11;;;;;;;;;;;;;;;23.32;74.65;101274.56;5029810;28;19965;-73
2023/07/21 12:02:37;;;;;;;;;;;;;;;23.58;70.34;101266.31;5030305;28;19917;-74
2023/07/21 12:05:03;;;;;;;;;;;;;;;23.14;80.70;101276.09;5029978;28;19917;-74
2023/07/21 12:07:29;;;;;;;;;;;;;;;23.02;84.31;101273.16;5015869;28;19920;-74
2023/07/21 12:09:54;;;;;;;;;;;;;;;23.22;79.78;101270.41;5033813;28;19917;-75
2023/07/21 12:12:20;;;;;;;;;;;;;;;23.14;73.70;101286.09;5016177;28;19973;-75
2023/07/21 12:14:45;;;;;;;;;;;;;;;22.66;88.82;101288.00;5034047;28;20015;-75
2023/07/21 12:17:14;;;;;;;;;;;;;;;23.26;86.60;101289.00;5033755;28;19917;-75
2023/07/21 12:19:40;;;;;;;;;;;;;;;24.16;78.24;101293.69;5033525;28;19997;-75
2023/07/21 12:22:06;;;;;;;;;;;;;;;24.26;62.22;101291.31;5033230;28;20328;-76